createdAt,value
2023-06-08T04:02:54.929Z,53.22
2023-06-08T04:05:00.354Z,52.36
2023-06-08T04:07:03.229Z,52.22
2023-06-08T04:09:06.606Z,51.74
2023-06-08T04:11:10.032Z,51.63
2023-06-08T04:13:12.918Z,51.83
2023-06-08T04:15:15.861Z,51.60
2023-06-08T04:17:18.682Z,51.50
2023-06-08T04:19:22.818Z,50.95
2023-06-08T04:21:26.450Z,51.33
2023-06-08T04:23:30.098Z,50.75
2023-06-08T04:25:33.182Z,50.69
2023-06-08T04:27:36.767Z,50.59
2023-06-08T04:29:39.623Z,50.50
2023-06-08T04:31:42.646Z,50.89
2023-06-08T04:33:45.975Z,50.46
2023-06-08T04:35:50.155Z,50.49
2023-06-08T04:37:53.077Z,50.58
2023-06-08T04:39:57.910Z,50.39
2023-06-08T04:42:00.963Z,50.54
2023-06-08T04:44:05.002Z,50.34
2023-06-08T04:46:08.612Z,50.25
2023-06-08T04:48:12.086Z,50.01
2023-06-08T04:52:20.491Z,49.94
2023-06-08T04:54:24.318Z,49.62
2023-06-08T04:56:30.411Z,50.08
2023-06-08T04:58:34.340Z,49.49
2023-06-08T05:00:37.396Z,49.70
2023-06-08T05:02:40.900Z,49.50
2023-06-08T05:04:43.953Z,49.78
2023-06-08T05:06:46.782Z,49.63
2023-06-08T05:08:50.958Z,49.77
2023-06-08T05:10:53.741Z,49.39
2023-06-08T05:12:57.915Z,49.68
2023-06-08T05:15:03.872Z,49.57
2023-06-08T05:17:06.884Z,49.21
2023-06-08T05:19:10.077Z,49.63
2023-06-08T05:21:12.916Z,49.49
2023-06-08T05:23:15.866Z,49.27
2023-06-08T05:25:20.566Z,49.09
2023-06-08T05:27:23.544Z,49.21
2023-06-08T05:29:26.493Z,49.24
2023-06-08T05:31:29.771Z,49.17
2023-06-08T05:33:32.657Z,48.60
2023-06-08T05:35:35.498Z,48.43
2023-06-08T05:37:38.466Z,48.47
2023-06-08T05:39:41.315Z,48.15
2023-06-08T05:41:45.524Z,48.06
2023-06-08T05:43:48.365Z,48.11
2023-06-08T05:45:51.202Z,48.29
2023-06-08T05:47:54.186Z,48.00
2023-06-08T05:49:57.042Z,47.39
2023-06-08T05:52:00.064Z,47.40
2023-06-08T05:54:02.833Z,47.17
2023-06-08T05:56:06.020Z,47.21
2023-06-08T05:58:10.311Z,46.99
2023-06-08T06:00:14.673Z,46.94
2023-06-08T06:02:17.676Z,47.11
2023-06-08T06:04:35.143Z,46.87
2023-06-08T06:06:39.979Z,47.16
2023-06-08T06:08:44.672Z,47.00
2023-06-08T06:10:48.127Z,46.61
2023-06-08T06:12:51.428Z,46.87
2023-06-08T06:14:56.570Z,46.56
2023-06-08T06:19:09.046Z,46.68
2023-06-08T06:21:11.996Z,46.75
2023-06-08T06:23:14.768Z,46.63
2023-06-08T06:25:17.578Z,46.42
2023-06-08T06:27:21.327Z,46.33
2023-06-08T06:29:24.610Z,46.49
2023-06-08T06:31:28.940Z,46.73
2023-06-08T06:33:31.910Z,46.64
2023-06-08T06:35:34.685Z,46.46
2023-06-08T06:37:37.597Z,46.14
2023-06-08T06:39:40.634Z,46.59
2023-06-08T06:41:44.182Z,46.37
2023-06-08T06:43:47.020Z,46.44
2023-06-08T06:45:52.431Z,46.50
2023-06-08T06:47:57.096Z,46.23
2023-06-08T06:50:00.990Z,46.15
2023-06-08T06:52:04.010Z,46.19
2023-06-08T06:54:07.166Z,46.11
2023-06-08T06:56:09.993Z,45.84
2023-06-08T06:58:13.873Z,45.91
2023-06-08T07:00:17.655Z,46.08
2023-06-08T07:02:20.916Z,46.11
2023-06-08T07:04:26.793Z,46.05
2023-06-08T07:06:31.666Z,45.91
2023-06-08T07:08:34.818Z,45.86
2023-06-08T07:10:38.539Z,45.99
2023-06-08T07:12:41.308Z,46.09
2023-06-08T07:14:44.203Z,46.34
2023-06-08T07:16:47.064Z,46.31
2023-06-08T07:18:51.194Z,46.42
2023-06-08T07:20:55.465Z,46.52
2023-06-08T07:23:25.194Z,46.08
2023-06-08T07:26:07.754Z,46.07
2023-06-08T07:27:45.571Z,46.06
2023-06-08T07:29:48.864Z,46.25
2023-06-08T07:31:51.848Z,46.04
2023-06-08T07:33:56.064Z,45.99
2023-06-08T07:36:00.716Z,46.10
2023-06-08T07:38:03.601Z,46.12
2023-06-08T07:40:10.101Z,45.77
2023-06-08T07:42:12.957Z,45.86
2023-06-08T07:44:16.957Z,45.47
2023-06-08T07:46:19.960Z,45.48
2023-06-08T07:48:22.969Z,45.50
2023-06-08T07:50:25.771Z,45.54
2023-06-08T07:52:30.117Z,45.57
2023-06-08T07:54:32.863Z,45.55
2023-06-08T07:56:36.545Z,45.74
2023-06-08T07:58:39.918Z,45.87
2023-06-08T08:00:42.841Z,45.58
2023-06-08T08:02:46.139Z,45.91
2023-06-08T08:04:49.185Z,45.79
2023-06-08T08:06:52.087Z,45.87
2023-06-08T08:08:56.368Z,45.90
2023-06-08T08:10:59.378Z,45.93
2023-06-08T08:13:02.577Z,45.59
2023-06-08T08:15:06.371Z,45.68
2023-06-08T08:17:09.587Z,45.96
2023-06-08T08:19:12.555Z,45.69
2023-06-08T08:21:15.349Z,46.35
2023-06-08T08:23:18.738Z,45.90
2023-06-08T08:25:23.187Z,45.97
2023-06-08T08:27:26.062Z,46.30
2023-06-08T08:29:29.023Z,46.20
2023-06-08T08:31:32.125Z,46.29
2023-06-08T08:33:35.340Z,46.27
2023-06-08T08:35:38.255Z,46.42
2023-06-08T08:37:42.005Z,46.37
2023-06-08T08:39:44.882Z,46.42
2023-06-08T08:41:54.734Z,46.22
2023-06-08T08:44:02.981Z,46.16
2023-06-08T08:46:08.811Z,46.26
2023-06-08T08:48:14.577Z,46.70
2023-06-08T08:50:19.391Z,46.47
2023-06-08T08:52:24.218Z,46.79
2023-06-08T08:54:32.820Z,46.62
2023-06-08T08:56:37.857Z,46.72
2023-06-08T08:58:42.603Z,46.90
2023-06-08T09:00:49.884Z,46.89
2023-06-08T09:02:53.779Z,46.92
2023-06-08T09:04:56.962Z,46.91
2023-06-08T09:06:59.808Z,46.77
2023-06-08T09:09:03.001Z,46.50
2023-06-08T09:11:07.433Z,47.05
2023-06-08T09:13:21.890Z,46.80
2023-06-08T09:15:31.929Z,46.84
2023-06-08T09:17:39.654Z,46.82
2023-06-08T09:19:53.880Z,46.44
2023-06-08T09:21:57.357Z,46.50
2023-06-08T09:24:11.402Z,46.39
2023-06-08T09:26:30.997Z,46.63
2023-06-08T09:28:35.416Z,46.46
2023-06-08T09:30:39.739Z,46.49
2023-06-08T09:32:42.729Z,46.23
2023-06-08T09:34:54.504Z,46.13
2023-06-08T09:37:08.581Z,46.38
2023-06-08T09:39:12.282Z,46.18
2023-06-08T09:41:17.054Z,46.37
2023-06-08T09:43:33.280Z,46.56
2023-06-08T09:45:46.887Z,46.23
2023-06-08T09:47:49.941Z,46.33
2023-06-08T09:49:53.845Z,46.16
2023-06-08T09:52:01.724Z,46.02
2023-06-08T09:54:09.472Z,46.06
2023-06-08T09:56:15.814Z,45.96
2023-06-08T09:58:18.985Z,46.10
2023-06-08T10:00:24.573Z,46.06
2023-06-08T10:02:35.683Z,45.88
2023-06-08T10:04:44.417Z,46.04
2023-06-08T10:06:49.434Z,46.17
2023-06-08T10:08:57.966Z,46.09
2023-06-08T10:11:03.322Z,46.02
2023-06-08T10:13:07.684Z,46.15
2023-06-08T10:15:12.172Z,46.33
2023-06-08T10:17:16.349Z,45.88
2023-06-08T10:19:23.423Z,46.06
2023-06-08T10:21:28.348Z,46.14
2023-06-08T10:23:33.145Z,46.29
2023-06-08T10:25:37.628Z,45.72
2023-06-08T10:27:48.427Z,46.08
2023-06-08T10:29:56.210Z,45.89
2023-06-08T10:31:59.122Z,45.67
2023-06-08T10:34:07.485Z,45.08
2023-06-08T10:36:12.707Z,45.39
2023-06-08T10:38:17.287Z,45.01
2023-06-08T10:40:21.360Z,45.17
2023-06-08T10:42:24.257Z,44.85
2023-06-08T10:44:32.417Z,45.03
2023-06-08T10:46:45.169Z,44.80
2023-06-08T10:48:49.610Z,44.30
2023-06-08T10:50:52.634Z,44.41
2023-06-08T10:52:59.462Z,44.00
2023-06-08T10:55:10.665Z,44.10
2023-06-08T10:57:16.334Z,44.05
2023-06-08T10:59:19.496Z,43.64
2023-06-08T11:01:22.663Z,43.42
2023-06-08T11:03:26.275Z,43.50
2023-06-08T11:05:31.168Z,43.29
2023-06-08T11:07:35.012Z,43.42
2023-06-08T11:09:39.481Z,43.28
2023-06-08T11:11:52.375Z,42.80
2023-06-08T11:13:55.321Z,43.17
2023-06-08T11:15:58.195Z,43.19
2023-06-08T11:18:01.457Z,42.60
2023-06-08T11:20:07.585Z,42.65
2023-06-08T11:22:10.696Z,42.96
2023-06-08T11:24:16.078Z,42.40
2023-06-08T11:26:23.665Z,42.81
2023-06-08T11:28:26.989Z,42.37
2023-06-08T11:30:32.432Z,42.65
2023-06-08T11:32:36.583Z,42.33
2023-06-08T11:34:40.082Z,42.48
2023-06-08T11:36:43.474Z,42.24
2023-06-08T11:38:46.281Z,42.63
2023-06-08T11:40:49.198Z,42.20
2023-06-08T11:42:54.002Z,42.40
2023-06-08T11:44:59.166Z,42.53
2023-06-08T11:47:02.658Z,42.29
2023-06-08T11:49:09.161Z,42.49
2023-06-08T11:51:12.163Z,42.51
2023-06-08T11:53:17.657Z,42.48
2023-06-08T11:55:23.792Z,42.29
2023-06-08T11:57:41.261Z,42.27
2023-06-08T11:59:47.000Z,42.41
2023-06-08T12:01:57.432Z,42.23
2023-06-08T12:04:00.610Z,42.12
2023-06-08T12:06:04.305Z,42.40
2023-06-08T12:08:12.763Z,42.41
2023-06-08T12:10:16.349Z,42.31
2023-06-08T12:12:19.512Z,42.14
2023-06-08T12:14:22.379Z,42.25
2023-06-08T12:16:26.982Z,41.80
2023-06-08T12:18:29.856Z,42.14
2023-06-08T12:20:35.469Z,41.95
2023-06-08T12:22:38.295Z,41.60
2023-06-08T12:24:41.043Z,41.70
2023-06-08T12:26:43.911Z,41.60
2023-06-08T12:28:46.889Z,41.63
2023-06-08T12:30:49.846Z,41.52
2023-06-08T12:32:56.585Z,41.76
2023-06-08T12:35:00.291Z,41.61
2023-06-08T12:37:05.944Z,41.67
2023-06-08T12:39:08.820Z,41.36
2023-06-08T12:41:11.838Z,41.53
2023-06-08T12:43:14.898Z,41.29
2023-06-08T12:45:19.261Z,41.09
2023-06-08T12:47:22.328Z,41.12
2023-06-08T12:49:26.988Z,41.01
2023-06-08T12:51:30.950Z,41.09
2023-06-08T12:53:33.893Z,41.14
2023-06-08T12:55:36.858Z,41.12
2023-06-08T12:57:40.288Z,40.71
2023-06-08T12:59:43.079Z,41.06
2023-06-08T13:01:46.690Z,40.56
2023-06-08T13:03:49.859Z,40.44
2023-06-08T13:05:54.270Z,40.50
2023-06-08T13:08:06.636Z,40.39
2023-06-08T13:10:11.018Z,39.92
2023-06-08T13:12:14.554Z,39.89
2023-06-08T13:14:17.574Z,39.48
2023-06-08T13:16:21.447Z,39.63
2023-06-08T13:18:26.658Z,39.45
2023-06-08T13:20:31.050Z,39.61
2023-06-08T13:22:35.725Z,39.86
2023-06-08T13:24:39.150Z,39.85
2023-06-08T13:26:42.376Z,39.88
2023-06-08T13:28:45.277Z,39.67
2023-06-08T13:30:48.373Z,39.92
2023-06-08T13:32:51.285Z,39.53
2023-06-08T13:34:56.418Z,39.72
2023-06-08T13:36:59.417Z,39.87
2023-06-08T13:39:04.011Z,39.98
2023-06-08T13:41:08.301Z,39.95
2023-06-08T13:43:13.450Z,40.07
2023-06-08T13:45:16.688Z,39.76
2023-06-08T13:47:19.616Z,40.20
2023-06-08T13:49:22.477Z,40.07
2023-06-08T13:51:25.453Z,40.33
2023-06-08T13:53:28.363Z,40.27
2023-06-08T13:55:33.111Z,40.38
2023-06-08T13:57:36.111Z,40.54
2023-06-08T13:59:41.363Z,40.74
2023-06-08T14:01:44.276Z,40.82
2023-06-08T14:03:47.243Z,40.63
2023-06-08T14:05:50.476Z,40.64
2023-06-08T14:07:53.548Z,40.77
2023-06-08T14:09:56.486Z,40.61
2023-06-08T14:12:00.903Z,40.61
2023-06-08T14:14:04.033Z,40.68
2023-06-08T14:16:08.903Z,40.39
2023-06-08T14:18:11.974Z,40.32
2023-06-08T14:20:15.062Z,40.57
2023-06-08T14:22:18.128Z,40.24
2023-06-08T14:24:21.313Z,40.47
2023-06-08T14:26:24.203Z,40.41
2023-06-08T14:28:28.561Z,40.47
2023-06-08T14:30:33.077Z,40.60
2023-06-08T14:32:36.209Z,40.60
2023-06-08T14:34:39.193Z,40.25
2023-06-08T14:36:44.172Z,40.43
2023-06-08T14:38:47.504Z,40.17
2023-06-08T14:40:50.558Z,40.02
2023-06-08T14:42:53.556Z,40.05
2023-06-08T14:44:57.791Z,40.07
2023-06-08T14:47:00.779Z,39.85
2023-06-08T14:49:03.750Z,39.67
2023-06-08T14:51:06.644Z,39.70
2023-06-08T14:53:09.421Z,39.53
2023-06-08T14:55:12.218Z,39.32
2023-06-08T14:57:15.184Z,39.25
2023-06-08T14:59:18.016Z,39.57
2023-06-08T15:01:22.439Z,39.52
2023-06-08T15:03:25.339Z,39.38
2023-06-08T15:05:28.439Z,39.25
2023-06-08T15:07:31.653Z,39.33
2023-06-08T15:09:35.132Z,39.21
2023-06-08T15:11:37.921Z,38.98
2023-06-08T15:13:43.417Z,39.19
2023-06-08T15:15:47.224Z,39.08
2023-06-08T15:17:51.609Z,38.53
2023-06-08T15:19:54.422Z,38.48
2023-06-08T15:21:57.381Z,38.71
2023-06-08T15:24:00.326Z,38.65
2023-06-08T15:26:03.392Z,38.49
2023-06-08T15:28:06.515Z,38.39
2023-06-08T15:30:10.438Z,38.19
2023-06-08T15:32:17.261Z,38.27
2023-06-08T15:34:21.670Z,38.25
2023-06-08T15:36:24.536Z,38.34
2023-06-08T15:38:28.276Z,38.06
2023-06-08T15:40:33.687Z,38.21
2023-06-08T15:42:36.733Z,38.09
2023-06-08T15:44:39.649Z,38.00
2023-06-08T15:46:43.543Z,38.07
2023-06-08T15:48:49.360Z,37.85
2023-06-08T15:50:53.727Z,37.96
2023-06-08T15:52:56.703Z,37.96
2023-06-08T15:54:59.580Z,37.78
2023-06-08T15:57:02.539Z,37.79
2023-06-08T15:59:05.342Z,37.73
2023-06-08T16:01:08.242Z,37.76
2023-06-08T16:03:11.225Z,37.79
2023-06-08T16:05:14.278Z,37.48
2023-06-08T16:07:18.942Z,37.69
2023-06-08T16:09:21.691Z,37.58
2023-06-08T16:11:24.475Z,37.32
2023-06-08T16:13:27.302Z,37.54
2023-06-08T16:15:32.295Z,37.21
2023-06-08T16:17:36.085Z,37.22
2023-06-08T16:19:39.387Z,37.29
2023-06-08T16:21:47.345Z,37.17
2023-06-08T16:23:55.657Z,36.99
2023-06-08T16:25:59.494Z,37.01
2023-06-08T16:28:03.618Z,36.84
2023-06-08T16:30:08.516Z,37.01
2023-06-08T16:32:11.891Z,36.67
2023-06-08T16:34:15.409Z,36.86
2023-06-08T16:36:18.344Z,36.80
2023-06-08T16:38:23.261Z,36.54
2023-06-08T16:40:28.251Z,36.79
2023-06-08T16:42:31.433Z,36.52
2023-06-08T16:44:34.467Z,36.84
2023-06-08T16:46:38.067Z,36.68
2023-06-08T16:48:41.117Z,36.59
2023-06-08T16:50:43.918Z,36.50
2023-06-08T16:52:46.765Z,36.60
2023-06-08T16:54:51.477Z,36.47
2023-06-08T16:56:56.138Z,36.45
2023-06-08T16:58:59.467Z,36.14
2023-06-08T17:01:02.642Z,36.03
2023-06-08T17:03:06.012Z,35.83
2023-06-08T17:05:10.156Z,35.96
2023-06-08T17:07:13.456Z,35.96
2023-06-08T17:09:16.629Z,35.87
2023-06-08T17:11:19.809Z,36.02
2023-06-08T17:13:24.934Z,35.97
2023-06-08T17:15:27.868Z,35.83
2023-06-08T17:17:31.078Z,35.87
2023-06-08T17:19:34.448Z,35.70
2023-06-08T17:21:37.227Z,35.63
2023-06-08T17:23:40.765Z,35.52
2023-06-08T17:25:44.472Z,35.59
2023-06-08T17:27:47.582Z,35.49
2023-06-08T17:29:51.913Z,35.50
2023-06-08T17:31:55.467Z,35.75
2023-06-08T17:33:59.107Z,36.40
2023-06-08T17:36:02.291Z,36.29
2023-06-08T17:38:08.696Z,36.94
2023-06-08T17:40:12.478Z,36.83
2023-06-08T17:42:16.163Z,37.18
2023-06-08T17:44:19.479Z,37.30
2023-06-08T17:46:24.482Z,37.48
2023-06-08T17:48:27.755Z,37.33
2023-06-08T17:50:30.894Z,37.62
2023-06-08T17:52:34.338Z,37.62
2023-06-08T17:54:37.881Z,37.80
2023-06-08T17:56:44.313Z,38.02
2023-06-08T17:58:48.467Z,38.14
2023-06-08T18:00:51.621Z,38.45
2023-06-08T18:02:56.628Z,38.69
2023-06-08T18:04:59.975Z,38.44
2023-06-08T18:07:05.253Z,38.47
2023-06-08T18:09:08.347Z,38.78
2023-06-08T18:11:11.688Z,38.85
2023-06-08T18:13:15.511Z,39.11
2023-06-08T18:15:18.619Z,39.28
2023-06-08T18:17:22.061Z,39.21
2023-06-08T18:19:27.165Z,39.57
2023-06-08T18:21:30.840Z,39.43
2023-06-08T18:23:33.771Z,39.54
2023-06-08T18:25:37.556Z,39.36
2023-06-08T18:27:41.271Z,39.79
2023-06-08T18:29:45.216Z,39.47
2023-06-08T18:31:48.928Z,39.51
2023-06-08T18:33:53.046Z,39.74
2023-06-08T18:35:58.580Z,39.90
2023-06-08T18:38:01.846Z,40.10
2023-06-08T18:40:05.499Z,40.16
2023-06-08T18:42:10.284Z,40.23
2023-06-08T18:44:14.260Z,40.17
2023-06-08T18:46:19.359Z,40.05
2023-06-08T18:48:23.013Z,40.23
2023-06-08T18:50:26.270Z,40.19
2023-06-08T18:52:32.474Z,40.19
2023-06-08T18:54:35.642Z,40.15
2023-06-08T18:56:38.406Z,40.28
2023-06-08T18:58:41.672Z,40.38
2023-06-08T19:00:44.595Z,40.48
2023-06-08T19:02:47.605Z,40.48
2023-06-08T19:04:50.742Z,40.35
2023-06-08T19:06:53.541Z,40.37
2023-06-08T19:08:59.771Z,40.36
2023-06-08T19:11:02.778Z,40.73
2023-06-08T19:13:06.034Z,40.62
2023-06-08T19:15:10.974Z,40.55
2023-06-08T19:17:14.142Z,40.42
2023-06-08T19:19:18.578Z,40.46
2023-06-08T19:21:21.806Z,40.37
2023-06-08T19:23:25.127Z,40.75
2023-06-08T19:25:30.106Z,40.70
2023-06-08T19:27:33.440Z,40.80
2023-06-08T19:29:37.569Z,40.80
2023-06-08T19:31:41.577Z,40.68
2023-06-08T19:33:44.739Z,40.82
2023-06-08T19:35:47.885Z,40.63
2023-06-08T19:37:51.400Z,40.89
2023-06-08T19:39:55.014Z,40.72
2023-06-08T19:42:03.931Z,40.52
2023-06-08T19:44:06.965Z,40.38
2023-06-08T19:46:11.735Z,40.34
2023-06-08T19:48:15.020Z,40.24
2023-06-08T19:50:18.195Z,40.33
2023-06-08T19:52:21.290Z,40.48
2023-06-08T19:54:24.435Z,40.46
2023-06-08T19:56:27.787Z,40.20
2023-06-08T19:58:32.882Z,40.03
2023-06-08T20:00:36.384Z,40.36
2023-06-08T20:02:39.812Z,40.24
2023-06-08T20:04:44.173Z,40.51
2023-06-08T20:06:48.822Z,40.22
2023-06-08T20:08:52.427Z,40.13
2023-06-08T20:10:55.263Z,40.10
2023-06-08T20:13:01.692Z,40.57
2023-06-08T20:15:07.304Z,40.56
2023-06-08T20:17:10.906Z,40.22
2023-06-08T20:19:13.986Z,40.32
2023-06-08T20:21:16.889Z,40.83
2023-06-08T20:23:20.237Z,40.88
2023-06-08T20:25:25.067Z,40.75
2023-06-08T20:27:28.793Z,41.03
2023-06-08T20:29:33.838Z,40.99
2023-06-08T20:31:40.034Z,40.68
2023-06-08T20:33:42.934Z,40.72
2023-06-08T20:35:46.322Z,40.88
2023-06-08T20:37:49.174Z,41.24
2023-06-08T20:39:52.304Z,40.98
2023-06-08T20:41:55.313Z,41.00
